createdAt,value
2023-05-09T00:01:48.490Z,97281.88
2023-05-09T00:04:53.103Z,97282.47
2023-05-09T00:07:59.292Z,97255.91
2023-05-09T00:11:03.978Z,97283.03
2023-05-09T00:14:08.584Z,97285.06
2023-05-09T00:17:15.698Z,97270.94
2023-05-09T00:20:20.734Z,97279.19
2023-05-09T00:23:25.302Z,97272.38
2023-05-09T00:26:29.783Z,97264.72
2023-05-09T00:29:34.261Z,97260.31
2023-05-09T00:32:40.361Z,97270.13
2023-05-09T00:35:44.930Z,97263.38
2023-05-09T00:38:49.464Z,97256.84
2023-05-09T00:41:56.018Z,97260.41
2023-05-09T00:45:01.091Z,97259.53
2023-05-09T00:48:06.080Z,97255.00
2023-05-09T00:51:11.120Z,97249.16
2023-05-09T00:54:15.990Z,97242.41
2023-05-09T00:57:20.586Z,97239.56
2023-05-09T01:00:25.352Z,97237.59
2023-05-09T01:03:31.207Z,97237.97
2023-05-09T01:06:57.934Z,97234.41
2023-05-09T01:10:10.850Z,97237.34
2023-05-09T01:13:24.419Z,97236.56
2023-05-09T01:16:50.202Z,97231.31
2023-05-09T01:20:11.038Z,97229.81
2023-05-09T01:23:53.775Z,97225.59
2023-05-09T01:27:27.331Z,97227.16
2023-05-09T01:30:34.544Z,97221.91
2023-05-09T01:33:42.495Z,97234.44
2023-05-09T01:36:50.502Z,97231.59
2023-05-09T01:39:59.928Z,97224.91
2023-05-09T01:43:09.958Z,97227.25
2023-05-09T01:46:18.321Z,97227.00
2023-05-09T01:49:24.989Z,97233.38
2023-05-09T01:52:30.522Z,97231.72
2023-05-09T01:55:37.590Z,97229.50
2023-05-09T01:58:43.791Z,97224.94
2023-05-09T02:01:49.302Z,97228.66
2023-05-09T02:04:56.275Z,97222.75
2023-05-09T02:08:02.385Z,97181.84
2023-05-09T02:11:11.090Z,97218.94
2023-05-09T02:14:15.828Z,97192.75
2023-05-09T02:17:21.549Z,97218.97
2023-05-09T02:20:26.074Z,97220.50
2023-05-09T02:23:31.252Z,97220.47
2023-05-09T02:26:36.210Z,97205.84
2023-05-09T02:29:47.425Z,97210.63
2023-05-09T02:32:56.741Z,97219.56
2023-05-09T02:36:01.870Z,97214.19
2023-05-09T02:39:07.085Z,97216.47
2023-05-09T02:42:13.461Z,97218.28
2023-05-09T02:45:19.298Z,97188.88
2023-05-09T02:48:23.977Z,97213.41
2023-05-09T02:51:28.442Z,97207.00
2023-05-09T02:54:33.021Z,97203.38
2023-05-09T02:57:37.956Z,97202.44
2023-05-09T03:00:43.088Z,97185.78
2023-05-09T03:03:48.209Z,97199.75
2023-05-09T03:06:55.239Z,97189.94
2023-05-09T03:10:00.207Z,97191.19
2023-05-09T03:13:05.226Z,97191.31
2023-05-09T03:16:17.027Z,97180.16
2023-05-09T03:19:22.532Z,97193.06
2023-05-09T03:22:27.019Z,97195.03
2023-05-09T03:25:36.588Z,97200.13
2023-05-09T03:28:42.280Z,97148.97
2023-05-09T03:31:46.856Z,97194.53
2023-05-09T03:34:51.582Z,97199.13
2023-05-09T03:37:56.112Z,97195.13
2023-05-09T03:41:00.697Z,97193.69
2023-05-09T03:44:05.812Z,97195.50
2023-05-09T03:47:12.340Z,97138.84
2023-05-09T03:50:18.126Z,97192.03
2023-05-09T03:53:23.518Z,97195.25
2023-05-09T03:56:29.971Z,97191.00
2023-05-09T03:59:35.563Z,97147.31
2023-05-09T04:02:42.049Z,97194.72
2023-05-09T04:05:51.589Z,97203.63
2023-05-09T04:09:07.034Z,97203.94
2023-05-09T04:12:12.435Z,97205.19
2023-05-09T04:15:18.112Z,97196.59
2023-05-09T04:18:22.790Z,97199.59
2023-05-09T04:21:27.269Z,97179.06
2023-05-09T04:24:35.868Z,97197.13
2023-05-09T04:27:40.536Z,97199.66
2023-05-09T04:30:45.738Z,97192.66
2023-05-09T04:33:51.363Z,97191.31
2023-05-09T04:36:56.097Z,97191.09
2023-05-09T04:40:01.424Z,97194.34
2023-05-09T04:43:14.297Z,97196.06
2023-05-09T04:46:18.825Z,97189.94
2023-05-09T04:49:25.392Z,97149.91
2023-05-09T04:52:29.870Z,97173.84
2023-05-09T04:55:34.418Z,97192.06
2023-05-09T04:58:39.476Z,97188.94
2023-05-09T05:01:47.414Z,97197.84
2023-05-09T05:04:54.344Z,97188.28
2023-05-09T05:08:03.311Z,97182.88
2023-05-09T05:11:13.689Z,97191.22
2023-05-09T05:14:18.288Z,97189.06
2023-05-09T05:17:24.662Z,97176.44
2023-05-09T05:20:29.691Z,97179.78
2023-05-09T05:23:34.335Z,97183.38
2023-05-09T05:26:38.907Z,97183.13
2023-05-09T05:29:44.137Z,97181.81
2023-05-09T05:32:48.818Z,97180.09
2023-05-09T05:35:56.325Z,97186.31
2023-05-09T05:39:00.830Z,97187.03
2023-05-09T05:42:05.633Z,97174.69
2023-05-09T05:45:10.703Z,97177.44
2023-05-09T05:48:18.373Z,97180.72
2023-05-09T05:51:24.412Z,97174.03
2023-05-09T05:54:29.367Z,97183.31
2023-05-09T05:57:38.967Z,97168.44
2023-05-09T06:00:45.975Z,97179.78
2023-05-09T06:03:54.703Z,97184.16
2023-05-09T06:07:01.723Z,97176.16
2023-05-09T06:10:07.642Z,97171.13
2023-05-09T06:13:12.192Z,97168.53
2023-05-09T06:16:21.633Z,97140.34
2023-05-09T06:19:28.131Z,97156.66
2023-05-09T06:22:32.732Z,97162.13
2023-05-09T06:25:37.238Z,97162.63
2023-05-09T06:28:43.318Z,97116.66
2023-05-09T06:31:47.960Z,97165.59
2023-05-09T06:34:53.057Z,97154.09
2023-05-09T06:37:57.506Z,97153.00
2023-05-09T06:41:01.980Z,97144.81
2023-05-09T06:44:06.731Z,97148.75
2023-05-09T06:47:11.288Z,97141.88
2023-05-09T06:50:15.799Z,97136.19
2023-05-09T06:53:20.364Z,97135.28
2023-05-09T06:56:25.268Z,97125.03
2023-05-09T06:59:29.936Z,97123.50
2023-05-09T07:02:34.474Z,97126.38
2023-05-09T07:05:39.000Z,97126.94
2023-05-09T07:08:43.550Z,97122.28
2023-05-09T07:11:48.131Z,97110.59
2023-05-09T07:14:52.576Z,97110.78
2023-05-09T07:17:57.118Z,97102.56
2023-05-09T07:21:01.626Z,97104.13
2023-05-09T07:24:06.451Z,97103.56
2023-05-09T07:27:10.976Z,97096.28
2023-05-09T07:30:15.846Z,97087.19
2023-05-09T07:33:20.417Z,97092.53
2023-05-09T07:36:24.884Z,97093.81
2023-05-09T07:39:29.369Z,97071.25
2023-05-09T07:42:34.240Z,97072.97
2023-05-09T07:45:38.794Z,97070.13
2023-05-09T07:48:43.451Z,97065.19
2023-05-09T07:51:47.986Z,97056.13
2023-05-09T07:54:52.507Z,97050.91
2023-05-09T07:57:58.419Z,97012.31
2023-05-09T08:01:02.890Z,97040.22
2023-05-09T08:04:08.924Z,97039.03
2023-05-09T08:07:13.531Z,97033.91
2023-05-09T08:10:18.186Z,97030.34
2023-05-09T08:13:22.818Z,97027.84
2023-05-09T08:16:27.767Z,97024.34
2023-05-09T08:19:32.525Z,97022.03
2023-05-09T08:22:39.075Z,97017.22
2023-05-09T08:25:43.637Z,97019.53
2023-05-09T08:28:48.143Z,97005.84
2023-05-09T08:31:52.724Z,97009.56
2023-05-09T08:34:57.295Z,97008.97
2023-05-09T08:38:01.778Z,97010.28
2023-05-09T08:41:06.271Z,96998.31
2023-05-09T08:44:11.310Z,96996.47
2023-05-09T08:47:16.479Z,96993.44
2023-05-09T08:50:22.194Z,96992.16
2023-05-09T08:53:27.121Z,96988.16
2023-05-09T08:56:31.818Z,96989.59
2023-05-09T08:59:37.499Z,96992.09
2023-05-09T09:02:44.540Z,96993.09
2023-05-09T09:05:50.680Z,96988.16
2023-05-09T09:08:56.350Z,96981.69
2023-05-09T09:12:01.632Z,96977.59
2023-05-09T09:15:14.454Z,96972.25
2023-05-09T09:18:23.295Z,96965.31
2023-05-09T09:21:27.893Z,96962.91
2023-05-09T09:24:33.826Z,96961.38
2023-05-09T09:27:38.383Z,96949.41
2023-05-09T09:30:47.976Z,96943.63
2023-05-09T09:33:52.777Z,96941.75
2023-05-09T09:36:58.159Z,96941.56
2023-05-09T09:40:04.105Z,96931.88
2023-05-09T09:46:41.386Z,96929.31
2023-05-09T09:49:47.789Z,96918.19
2023-05-09T09:52:55.645Z,96913.28
2023-05-09T09:56:00.243Z,96908.31
2023-05-09T09:59:12.687Z,96902.69
2023-05-09T10:02:23.570Z,96905.28
2023-05-09T10:05:29.937Z,96892.41
2023-05-09T10:08:34.525Z,96887.72
2023-05-09T10:11:39.069Z,96876.88
2023-05-09T10:14:44.748Z,96880.59
2023-05-09T10:17:56.353Z,96882.19
2023-05-09T10:21:03.272Z,96868.75
2023-05-09T10:24:08.806Z,96878.09
2023-05-09T10:27:14.983Z,96877.09
2023-05-09T10:30:23.326Z,96860.53
2023-05-09T10:33:43.588Z,96860.78
2023-05-09T10:36:49.236Z,96842.94
2023-05-09T10:39:55.688Z,96842.09
2023-05-09T10:43:00.575Z,96834.47
2023-05-09T10:46:05.919Z,96825.59
2023-05-09T10:49:10.580Z,96831.94
2023-05-09T10:52:15.468Z,96815.09
2023-05-09T10:55:19.946Z,96812.75
2023-05-09T10:58:28.292Z,96805.53
2023-05-09T11:01:37.260Z,96796.78
2023-05-09T11:04:42.244Z,96784.41
2023-05-09T11:07:46.755Z,96786.81
2023-05-09T11:10:53.102Z,96784.16
2023-05-09T11:13:58.332Z,96778.13
2023-05-09T11:17:04.950Z,96773.66
2023-05-09T11:20:09.962Z,96773.16
2023-05-09T11:23:21.804Z,96765.03
2023-05-09T11:26:28.641Z,96765.84
2023-05-09T11:29:44.109Z,96760.09
2023-05-09T11:32:58.899Z,96744.19
2023-05-09T11:36:31.924Z,96750.69
2023-05-09T11:39:55.972Z,96745.00
2023-05-09T11:43:01.264Z,96732.31
2023-05-09T11:46:06.237Z,96726.34
2023-05-09T11:49:12.111Z,96725.66
2023-05-09T11:52:18.785Z,96723.16
2023-05-09T11:55:25.078Z,96712.16
2023-05-09T11:58:29.633Z,96709.81
2023-05-09T12:01:34.328Z,96708.97
2023-05-09T12:04:39.224Z,96698.63
2023-05-09T12:07:44.841Z,96692.44
2023-05-09T12:10:49.394Z,96703.59
2023-05-09T12:13:54.036Z,96697.50
2023-05-09T12:16:58.848Z,96694.59
2023-05-09T12:20:06.933Z,96683.03
2023-05-09T12:23:14.460Z,96680.50
2023-05-09T12:26:20.617Z,96670.66
2023-05-09T12:29:25.922Z,96654.59
2023-05-09T12:32:32.844Z,96654.88
2023-05-09T12:35:39.421Z,96659.16
2023-05-09T12:38:56.535Z,96652.88
2023-05-09T12:42:02.301Z,96639.44
2023-05-09T12:45:11.441Z,96632.94
2023-05-09T12:48:16.078Z,96638.50
2023-05-09T12:51:21.965Z,96621.69
2023-05-09T12:54:28.997Z,96618.59
2023-05-09T12:57:33.619Z,96625.38
2023-05-09T13:00:44.429Z,96621.94
2023-05-09T13:03:59.759Z,96617.75
2023-05-09T13:07:10.128Z,96608.47
2023-05-09T13:10:15.278Z,96598.34
2023-05-09T13:13:20.430Z,96597.13
2023-05-09T13:16:25.338Z,96598.59
2023-05-09T13:19:33.526Z,96563.53
2023-05-09T13:22:38.052Z,96590.91
2023-05-09T13:25:42.629Z,96584.81
2023-05-09T13:28:47.163Z,96582.75
2023-05-09T13:31:52.045Z,96570.09
2023-05-09T13:34:56.685Z,96563.34
2023-05-09T13:38:01.224Z,96558.06
2023-05-09T13:41:07.447Z,96555.28
2023-05-09T13:44:11.977Z,96545.22
2023-05-09T13:47:16.446Z,96530.59
2023-05-09T13:50:21.047Z,96531.47
2023-05-09T13:53:25.650Z,96535.47
2023-05-09T13:56:30.195Z,96528.63
2023-05-09T13:59:36.595Z,96513.09
2023-05-09T14:02:41.382Z,96521.72
2023-05-09T14:05:46.181Z,96516.41
2023-05-09T14:08:50.720Z,96521.41
2023-05-09T14:11:55.659Z,96514.59
2023-05-09T14:15:00.396Z,96501.50
2023-05-09T14:18:05.061Z,96506.75
2023-05-09T14:21:09.707Z,96490.91
2023-05-09T14:24:16.102Z,96486.00
2023-05-09T14:27:22.602Z,96495.31
2023-05-09T14:30:27.222Z,96479.41
2023-05-09T14:33:32.753Z,96479.66
2023-05-09T14:36:37.561Z,96464.53
2023-05-09T14:39:43.340Z,96469.28
2023-05-09T14:42:48.430Z,96464.16
2023-05-09T14:45:53.207Z,96456.78
2023-05-09T14:49:03.843Z,96454.97
2023-05-09T14:52:08.673Z,96448.75
2023-05-09T14:55:13.424Z,96445.19
2023-05-09T14:58:18.250Z,96443.16
2023-05-09T15:01:23.511Z,96437.19
2023-05-09T15:04:30.499Z,96428.41
2023-05-09T15:07:35.911Z,96411.44
2023-05-09T15:10:40.864Z,96429.66
2023-05-09T15:13:45.381Z,96430.44
2023-05-09T15:16:52.150Z,96413.25
2023-05-09T15:19:56.779Z,96413.50
2023-05-09T15:23:01.629Z,96414.81
2023-05-09T15:26:12.297Z,96407.97
2023-05-09T15:29:18.401Z,96406.84
2023-05-09T15:32:23.462Z,96412.75
2023-05-09T15:35:28.115Z,96405.47
2023-05-09T15:38:32.634Z,96400.31
2023-05-09T15:41:37.169Z,96393.78
2023-05-09T15:44:47.083Z,96388.31
2023-05-09T15:47:52.898Z,96399.81
2023-05-09T15:50:57.461Z,96392.97
2023-05-09T15:54:02.057Z,96382.38
2023-05-09T15:57:07.123Z,96392.34
2023-05-09T16:00:12.495Z,96386.25
2023-05-09T16:03:18.096Z,96387.03
2023-05-09T16:06:22.779Z,96385.50
2023-05-09T16:09:28.560Z,96357.13
2023-05-09T16:12:33.165Z,96384.63
2023-05-09T16:15:37.690Z,96373.81
2023-05-09T16:18:42.499Z,96373.63
2023-05-09T16:21:47.140Z,96372.13
2023-05-09T16:24:51.755Z,96364.81
2023-05-09T16:27:57.761Z,96329.69
2023-05-09T16:31:04.805Z,96361.13
2023-05-09T16:34:09.546Z,96363.75
2023-05-09T16:37:16.007Z,96365.03
2023-05-09T16:40:21.193Z,96356.09
2023-05-09T16:43:25.732Z,96344.72
2023-05-09T16:46:30.187Z,96342.06
2023-05-09T16:49:34.789Z,96336.63
2023-05-09T16:52:39.306Z,96334.38
2023-05-09T16:55:43.890Z,96326.91
2023-05-09T16:58:49.320Z,96331.25
2023-05-09T17:01:53.963Z,96320.53
2023-05-09T17:04:58.551Z,96325.84
2023-05-09T17:08:05.131Z,96328.09
2023-05-09T17:11:09.829Z,96312.28
2023-05-09T17:14:14.437Z,96313.84
2023-05-09T17:17:18.926Z,96307.09
2023-05-09T17:20:25.751Z,96298.03
2023-05-09T17:23:30.421Z,96311.47
2023-05-09T17:26:35.179Z,96304.84
2023-05-09T17:29:39.706Z,96314.03
2023-05-09T17:32:44.732Z,96304.84
2023-05-09T17:35:50.070Z,96302.59
2023-05-09T17:38:54.597Z,96305.28
2023-05-09T17:42:01.854Z,96262.81
2023-05-09T17:45:07.141Z,96298.13
2023-05-09T17:48:11.748Z,96300.28
2023-05-09T17:51:16.922Z,96297.81
2023-05-09T17:54:21.490Z,96296.47
2023-05-09T17:57:26.127Z,96285.16
2023-05-09T18:00:30.838Z,96289.13
2023-05-09T18:03:35.549Z,96287.88
2023-05-09T18:06:40.297Z,96295.81
2023-05-09T18:09:44.950Z,96294.53
2023-05-09T18:12:49.463Z,96291.56
2023-05-09T18:15:59.322Z,96301.97
2023-05-09T18:19:03.812Z,96304.09
2023-05-09T18:22:08.303Z,96297.63
2023-05-09T18:25:13.663Z,96293.81
2023-05-09T18:28:24.440Z,96298.31
2023-05-09T18:31:29.428Z,96292.06
2023-05-09T18:34:34.062Z,96291.44
2023-05-09T18:37:38.576Z,96284.72
2023-05-09T18:40:43.067Z,96287.31
2023-05-09T18:43:47.807Z,96293.22
2023-05-09T18:46:53.469Z,96297.06
2023-05-09T18:49:59.694Z,96298.13
2023-05-09T18:53:07.355Z,96291.56
2023-05-09T18:56:11.788Z,96290.38
2023-05-09T18:59:17.178Z,96291.69
2023-05-09T19:02:22.565Z,96290.06
2023-05-09T19:05:27.483Z,96288.28
2023-05-09T19:08:32.064Z,96284.94
2023-05-09T19:11:38.365Z,96281.69
2023-05-09T19:14:43.217Z,96284.50
2023-05-09T19:17:47.783Z,96279.56
2023-05-09T19:20:52.168Z,96286.31
2023-05-09T19:23:56.832Z,96283.66
2023-05-09T19:27:02.706Z,96280.00
2023-05-09T19:30:07.730Z,96275.81
2023-05-09T19:33:12.444Z,96282.44
2023-05-09T19:36:17.867Z,96271.38
2023-05-09T19:39:22.303Z,96280.50
2023-05-09T19:42:26.911Z,96267.38
2023-05-09T19:45:31.418Z,96267.75
2023-05-09T19:48:35.907Z,96260.09
2023-05-09T19:51:40.481Z,96258.09
2023-05-09T19:54:45.112Z,96255.81
2023-05-09T19:57:51.354Z,96257.09
2023-05-09T20:00:55.836Z,96248.88
2023-05-09T20:04:00.748Z,96247.50
2023-05-09T20:07:05.440Z,96253.09
2023-05-09T20:10:12.618Z,96243.75
2023-05-09T20:13:17.366Z,96249.50
2023-05-09T20:16:22.268Z,96245.94
2023-05-09T20:19:26.898Z,96249.72
2023-05-09T20:22:31.318Z,96252.78
2023-05-09T20:25:36.067Z,96244.00
2023-05-09T20:28:41.100Z,96244.06
2023-05-09T20:31:45.558Z,96231.88
2023-05-09T20:34:50.183Z,96240.25
2023-05-09T20:37:54.875Z,96238.50
2023-05-09T20:40:59.305Z,96235.66
2023-05-09T20:44:04.559Z,96236.72
2023-05-09T20:47:09.081Z,96227.19
2023-05-09T20:50:17.288Z,96214.59
2023-05-09T20:53:26.306Z,96227.50
2023-05-09T20:56:30.885Z,96226.88
2023-05-09T20:59:35.263Z,96226.38
2023-05-09T21:02:39.841Z,96220.13
2023-05-09T21:05:44.463Z,96208.09
2023-05-09T21:08:50.638Z,96143.47
2023-05-09T21:11:55.152Z,96204.94
2023-05-09T21:14:59.583Z,96199.34
2023-05-09T21:18:04.238Z,96195.53
2023-05-09T21:21:08.795Z,96175.19
2023-05-09T21:24:14.338Z,96188.63
2023-05-09T21:27:18.847Z,96196.31
2023-05-09T21:30:23.341Z,96193.31
2023-05-09T21:33:27.974Z,96202.25
2023-05-09T21:36:32.342Z,96202.53
2023-05-09T21:39:36.721Z,96203.50
2023-05-09T21:42:41.574Z,96197.09
2023-05-09T21:45:46.271Z,96201.00
2023-05-09T21:48:50.791Z,96198.19
2023-05-09T21:51:55.212Z,96204.06
2023-05-09T21:54:59.637Z,96187.16
2023-05-09T21:58:04.005Z,96196.38
2023-05-09T22:01:08.555Z,96202.41
2023-05-09T22:04:13.477Z,96201.06
2023-05-09T22:07:17.795Z,96202.72
2023-05-09T22:10:22.460Z,96204.91
2023-05-09T22:13:28.638Z,96202.44
2023-05-09T22:16:33.172Z,96205.44
2023-05-09T22:19:38.294Z,96207.97
2023-05-09T22:22:42.820Z,96195.97
2023-05-09T22:25:47.310Z,96197.44
2023-05-09T22:28:51.840Z,96198.97
2023-05-09T22:31:56.451Z,96190.31
2023-05-09T22:35:01.059Z,96192.03
2023-05-09T22:38:05.593Z,96198.00
2023-05-09T22:41:10.143Z,96204.00
2023-05-09T22:44:16.578Z,96157.59
2023-05-09T22:47:21.044Z,96203.66
2023-05-09T22:50:25.467Z,96203.31
2023-05-09T22:53:30.588Z,96196.81
2023-05-09T22:56:34.956Z,96203.41
2023-05-09T22:59:39.393Z,96197.34
2023-05-09T23:02:44.129Z,96192.81
2023-05-09T23:05:48.832Z,96203.63
2023-05-09T23:08:53.394Z,96204.47
2023-05-09T23:11:57.765Z,96200.09
2023-05-09T23:15:03.375Z,96196.38
2023-05-09T23:18:07.949Z,96194.00
2023-05-09T23:21:12.525Z,96196.50
2023-05-09T23:24:18.672Z,96185.34
2023-05-09T23:27:23.448Z,96180.09
2023-05-09T23:30:28.263Z,96186.88
2023-05-09T23:33:32.832Z,96182.91
2023-05-09T23:36:37.297Z,96179.13
2023-05-09T23:39:41.741Z,96174.47
2023-05-09T23:42:46.398Z,96177.50
2023-05-09T23:45:51.256Z,96164.03
2023-05-09T23:48:56.187Z,96168.03
2023-05-09T23:52:00.751Z,96160.09
2023-05-09T23:55:05.864Z,96159.78
2023-05-09T23:58:10.806Z,96157.47
